createdAt,value
2018-06-18T00:01:44.772Z,49.38
2018-06-18T00:04:12.538Z,49.60
2018-06-18T00:06:40.041Z,49.67
2018-06-18T00:09:07.493Z,49.65
2018-06-18T00:11:34.926Z,49.80
2018-06-18T00:14:02.366Z,50.06
2018-06-18T00:16:29.827Z,49.95
2018-06-18T00:18:57.284Z,50.03
2018-06-18T00:21:24.700Z,49.90
2018-06-18T00:23:52.094Z,50.04
2018-06-18T00:26:19.619Z,50.00
2018-06-18T00:28:47.136Z,49.85
2018-06-18T00:31:14.562Z,49.45
2018-06-18T00:33:42.965Z,49.58
2018-06-18T00:36:10.434Z,49.81
2018-06-18T00:38:37.856Z,50.06
2018-06-18T00:41:05.249Z,50.16
2018-06-18T00:43:32.679Z,50.13
2018-06-18T00:46:00.657Z,50.04
2018-06-18T00:48:28.080Z,49.88
2018-06-18T00:50:55.569Z,49.60
2018-06-18T00:53:23.117Z,49.35
2018-06-18T00:56:07.166Z,49.50
2018-06-18T00:58:34.655Z,48.97
2018-06-18T01:01:02.130Z,48.91
2018-06-18T01:03:29.564Z,49.13
2018-06-18T01:05:57.343Z,49.15
2018-06-18T01:08:25.016Z,49.21
2018-06-18T01:10:52.552Z,49.22
2018-06-18T01:13:20.001Z,49.16
2018-06-18T01:15:47.437Z,49.04
2018-06-18T01:18:14.933Z,48.75
2018-06-18T01:20:42.382Z,48.70
2018-06-18T01:23:09.822Z,48.85
2018-06-18T01:25:37.260Z,49.05
2018-06-18T01:28:04.760Z,48.89
2018-06-18T01:30:32.232Z,49.10
2018-06-18T01:32:59.638Z,48.94
2018-06-18T01:35:27.097Z,48.91
2018-06-18T01:37:54.670Z,48.84
2018-06-18T01:40:22.141Z,48.79
2018-06-18T01:42:49.699Z,48.80
2018-06-18T01:45:17.115Z,48.64
2018-06-18T01:47:44.818Z,48.89
2018-06-18T01:50:12.258Z,49.26
2018-06-18T01:52:39.720Z,49.50
2018-06-18T01:55:07.165Z,49.57
2018-06-18T01:57:34.679Z,49.45
2018-06-18T02:00:02.089Z,48.91
2018-06-18T02:02:29.555Z,48.62
2018-06-18T02:04:57.006Z,48.52
2018-06-18T02:07:24.533Z,48.29
2018-06-18T02:09:51.902Z,48.23
2018-06-18T02:12:19.358Z,48.28
2018-06-18T02:14:46.822Z,48.26
2018-06-18T02:17:14.341Z,48.09
2018-06-18T02:19:41.828Z,48.35
2018-06-18T02:22:09.257Z,48.63
2018-06-18T02:24:36.674Z,48.70
2018-06-18T02:27:04.125Z,48.63
2018-06-18T02:29:37.163Z,48.92
2018-06-18T02:32:10.276Z,49.02
2018-06-18T02:37:49.619Z,49.19
2018-06-18T02:40:17.144Z,49.29
2018-06-18T02:42:44.619Z,50.27
2018-06-18T02:45:12.103Z,50.61
2018-06-18T02:47:40.078Z,51.16
2018-06-18T02:50:07.519Z,51.57
2018-06-18T02:52:35.069Z,51.65
2018-06-18T02:55:02.519Z,51.46
2018-06-18T02:57:29.988Z,51.48
2018-06-18T02:59:57.418Z,51.78
2018-06-18T03:02:24.866Z,52.13
2018-06-18T03:04:52.323Z,52.63
2018-06-18T03:07:19.736Z,53.10
2018-06-18T03:09:47.182Z,53.39
2018-06-18T03:12:14.699Z,53.98
2018-06-18T03:14:42.252Z,54.00
2018-06-18T03:17:09.724Z,54.29
2018-06-18T03:22:51.814Z,54.76
2018-06-18T03:25:19.310Z,54.26
2018-06-18T03:30:41.089Z,53.03
2018-06-18T03:33:08.554Z,52.96
2018-06-18T03:35:37.898Z,52.98
2018-06-18T03:38:05.393Z,53.13
2018-06-18T03:40:32.831Z,53.20
2018-06-18T03:43:00.305Z,53.39
2018-06-18T03:45:27.734Z,53.35
2018-06-18T03:47:55.192Z,53.59
2018-06-18T03:50:22.678Z,53.61
2018-06-18T03:52:50.118Z,53.63
2018-06-18T03:55:17.653Z,53.89
2018-06-18T03:57:45.324Z,54.06
2018-06-18T04:00:12.751Z,54.10
2018-06-18T04:05:52.108Z,54.26
2018-06-18T04:08:19.533Z,54.17
2018-06-18T04:10:52.640Z,54.06
2018-06-18T04:13:20.101Z,54.28
2018-06-18T04:15:47.550Z,54.40
2018-06-18T04:18:15.014Z,54.57
2018-06-18T04:20:42.432Z,54.86
2018-06-18T04:23:09.924Z,55.22
2018-06-18T04:25:37.314Z,55.09
2018-06-18T04:28:04.771Z,54.91
2018-06-18T04:30:32.258Z,54.70
2018-06-18T04:32:59.717Z,54.37
2018-06-18T04:35:27.186Z,54.11
2018-06-18T04:37:54.715Z,54.07
2018-06-18T04:40:22.141Z,54.31
2018-06-18T04:42:49.623Z,54.04
2018-06-18T04:48:26.781Z,52.88
2018-06-18T04:50:57.828Z,52.64
2018-06-18T04:53:25.496Z,52.94
2018-06-18T04:55:52.939Z,52.84
2018-06-18T04:58:20.341Z,52.66
2018-06-18T05:00:47.811Z,52.47
2018-06-18T05:03:15.412Z,52.30
2018-06-18T05:05:42.945Z,52.06
2018-06-18T05:08:10.424Z,51.88
2018-06-18T05:10:37.854Z,51.44
2018-06-18T05:13:05.347Z,51.71
2018-06-18T05:15:32.754Z,51.87
2018-06-18T05:18:00.179Z,51.63
2018-06-18T05:20:27.661Z,51.08
2018-06-18T05:22:55.134Z,50.76
2018-06-18T05:25:22.710Z,51.42
2018-06-18T05:27:51.109Z,51.88
2018-06-18T05:30:18.564Z,51.94
2018-06-18T05:32:46.179Z,52.61
2018-06-18T05:35:13.628Z,53.26
2018-06-18T05:37:41.082Z,53.08
2018-06-18T05:40:08.505Z,53.09
2018-06-18T05:42:36.973Z,53.27
2018-06-18T05:45:04.413Z,53.28
2018-06-18T05:47:32.004Z,52.71
2018-06-18T05:49:59.498Z,52.34
2018-06-18T05:52:26.991Z,51.42
2018-06-18T05:54:54.552Z,50.71
2018-06-18T05:57:22.037Z,50.61
2018-06-18T05:59:49.629Z,50.48
2018-06-18T06:02:17.085Z,50.52
2018-06-18T06:04:44.652Z,50.55
2018-06-18T06:07:12.110Z,51.00
2018-06-18T06:09:39.785Z,51.24
2018-06-18T06:12:07.306Z,51.17
2018-06-18T06:14:34.908Z,51.14
2018-06-18T06:17:02.515Z,51.39
2018-06-18T06:19:29.929Z,51.10
2018-06-18T06:21:57.476Z,50.62
2018-06-18T06:24:24.968Z,50.42
2018-06-18T06:26:52.411Z,50.54
2018-06-18T06:29:19.865Z,50.31
2018-06-18T06:31:47.358Z,49.69
2018-06-18T06:34:15.027Z,49.61
2018-06-18T06:36:42.508Z,49.57
2018-06-18T06:39:10.091Z,49.18
2018-06-18T06:41:38.232Z,48.73
2018-06-18T06:44:06.595Z,48.31
2018-06-18T06:46:34.036Z,49.20
2018-06-18T06:49:01.553Z,48.07
2018-06-18T06:51:29.214Z,47.10
2018-06-18T06:53:56.669Z,46.26
2018-06-18T06:56:24.225Z,46.10
2018-06-18T06:58:51.731Z,45.89
2018-06-18T07:01:19.253Z,46.50
2018-06-18T07:03:47.382Z,46.56
2018-06-18T07:06:15.582Z,46.08
2018-06-18T07:08:43.209Z,45.93
2018-06-18T07:11:10.694Z,46.30
2018-06-18T07:13:38.527Z,46.09
2018-06-18T07:16:05.845Z,45.51
2018-06-18T07:18:33.274Z,45.60
2018-06-18T07:21:00.714Z,45.31
2018-06-18T07:23:28.514Z,44.68
2018-06-18T07:25:56.015Z,43.60
2018-06-18T07:28:23.591Z,42.90
2018-06-18T07:30:51.044Z,43.44
2018-06-18T07:33:18.811Z,43.46
2018-06-18T07:35:46.237Z,43.97
2018-06-18T07:38:13.683Z,43.57
2018-06-18T07:40:41.207Z,42.83
2018-06-18T07:43:08.615Z,41.98
2018-06-18T07:45:36.382Z,41.31
2018-06-18T07:48:04.429Z,41.57
2018-06-18T07:50:31.863Z,41.66
2018-06-18T07:52:59.355Z,40.84
2018-06-18T07:55:27.043Z,41.85
2018-06-18T07:57:54.662Z,41.69
2018-06-18T08:00:22.240Z,40.47
2018-06-18T08:02:49.708Z,40.10
2018-06-18T08:05:17.608Z,40.31
2018-06-18T08:07:45.081Z,40.46
2018-06-18T08:10:12.633Z,40.09
2018-06-18T08:12:40.115Z,39.59
2018-06-18T08:15:07.542Z,39.61
2018-06-18T08:17:35.022Z,39.04
2018-06-18T08:20:02.488Z,38.67
2018-06-18T08:22:30.021Z,38.71
2018-06-18T08:24:58.670Z,38.98
2018-06-18T08:27:26.119Z,38.89
2018-06-18T08:29:53.655Z,38.94
2018-06-18T08:32:21.180Z,39.23
2018-06-18T08:34:49.489Z,39.49
2018-06-18T08:37:16.944Z,39.58
2018-06-18T08:39:45.346Z,39.73
2018-06-18T08:42:12.837Z,39.54
2018-06-18T08:44:40.243Z,39.51
2018-06-18T08:47:07.740Z,39.19
2018-06-18T08:49:35.194Z,39.37
2018-06-18T08:55:09.776Z,39.36
2018-06-18T09:00:50.267Z,39.91
2018-06-18T09:03:17.984Z,39.94
2018-06-18T09:05:45.477Z,39.06
2018-06-18T09:08:12.984Z,38.61
2018-06-18T09:10:40.445Z,38.57
2018-06-18T09:13:07.923Z,39.36
2018-06-18T09:15:35.356Z,39.45
2018-06-18T09:18:02.842Z,38.80
2018-06-18T09:20:30.596Z,39.23
2018-06-18T09:22:58.019Z,38.50
2018-06-18T09:25:25.514Z,38.61
2018-06-18T09:27:53.156Z,37.64
2018-06-18T09:30:20.620Z,37.93
2018-06-18T09:32:48.547Z,37.12
2018-06-18T09:35:16.316Z,36.83
2018-06-18T09:37:43.812Z,36.54
2018-06-18T09:40:10.746Z,36.82
2018-06-18T09:42:37.815Z,36.17
2018-06-18T09:45:04.812Z,36.08
2018-06-18T09:47:31.840Z,36.42
2018-06-18T09:50:04.578Z,36.40
2018-06-18T09:55:43.001Z,36.33
2018-06-18T09:58:15.806Z,35.92
2018-06-18T10:03:38.795Z,35.77
2018-06-18T10:06:05.845Z,35.93
2018-06-18T10:08:33.006Z,35.81
2018-06-18T10:11:00.016Z,36.55
2018-06-18T10:13:27.225Z,36.73
2018-06-18T10:15:54.177Z,36.78
2018-06-18T10:18:21.822Z,36.40
2018-06-18T10:20:48.764Z,35.56
2018-06-18T10:23:15.919Z,35.99
2018-06-18T10:25:42.961Z,35.96
2018-06-18T10:28:09.959Z,36.58
2018-06-18T10:30:36.905Z,36.96
2018-06-18T10:33:04.003Z,36.53
2018-06-18T10:38:43.434Z,35.47
2018-06-18T10:41:27.347Z,35.22
2018-06-18T10:43:54.745Z,35.60
2018-06-18T10:46:21.715Z,35.98
2018-06-18T10:48:48.709Z,35.36
2018-06-18T10:51:16.017Z,35.44
2018-06-18T10:53:43.060Z,35.46
2018-06-18T10:56:10.093Z,35.12
2018-06-18T10:58:37.271Z,34.92
2018-06-18T11:01:04.403Z,34.94
2018-06-18T11:03:31.534Z,35.30
2018-06-18T11:05:58.599Z,35.74
2018-06-18T11:08:25.723Z,34.98
2018-06-18T11:10:52.891Z,35.58
2018-06-18T11:13:19.866Z,35.06
2018-06-18T11:15:46.880Z,34.98
2018-06-18T11:18:30.605Z,34.10
2018-06-18T11:21:13.184Z,33.52
2018-06-18T11:23:55.973Z,34.21
2018-06-18T11:29:19.990Z,33.34
2018-06-18T11:31:46.976Z,33.80
2018-06-18T11:34:14.723Z,33.60
2018-06-18T11:36:41.801Z,33.56
2018-06-18T11:39:08.802Z,33.57
2018-06-18T11:41:35.776Z,33.19
2018-06-18T11:44:02.933Z,33.43
2018-06-18T11:46:30.379Z,33.07
2018-06-18T11:48:57.374Z,33.00
2018-06-18T11:51:24.370Z,32.48
2018-06-18T11:53:51.890Z,32.91
2018-06-18T11:56:19.348Z,32.71
2018-06-18T11:58:46.882Z,32.89
2018-06-18T12:01:19.959Z,32.47
2018-06-18T12:04:03.020Z,32.55
2018-06-18T12:09:29.589Z,31.91
2018-06-18T12:11:57.038Z,32.39
2018-06-18T12:14:24.477Z,32.84
2018-06-18T12:16:52.061Z,32.79
2018-06-18T12:19:19.444Z,32.82
2018-06-18T12:21:46.958Z,32.53
2018-06-18T12:24:14.408Z,31.77
2018-06-18T12:26:41.359Z,31.99
2018-06-18T12:29:09.023Z,32.79
2018-06-18T12:31:36.488Z,32.89
2018-06-18T12:34:04.118Z,32.82
2018-06-18T12:36:31.649Z,32.46
2018-06-18T12:41:32.913Z,32.79
2018-06-18T12:44:00.427Z,32.04
2018-06-18T12:49:40.815Z,32.00
2018-06-18T12:52:23.154Z,31.22
2018-06-18T12:57:43.740Z,30.85
2018-06-18T13:00:11.398Z,30.51
2018-06-18T13:02:39.192Z,30.80
2018-06-18T13:05:06.289Z,30.47
2018-06-18T13:07:33.765Z,30.34
2018-06-18T13:10:01.238Z,30.40
2018-06-18T13:12:28.687Z,30.62
2018-06-18T13:14:56.177Z,29.97
2018-06-18T13:17:23.188Z,29.64
2018-06-18T13:19:50.179Z,30.54
2018-06-18T13:22:17.835Z,30.41
2018-06-18T13:24:44.803Z,30.03
2018-06-18T13:27:12.255Z,30.17
2018-06-18T13:29:39.207Z,30.28
2018-06-18T13:32:06.648Z,29.89
2018-06-18T13:34:33.703Z,29.91
2018-06-18T13:37:01.223Z,29.99
2018-06-18T13:42:39.327Z,30.25
2018-06-18T13:45:21.257Z,29.90
2018-06-18T13:48:05.984Z,30.17
2018-06-18T13:50:33.054Z,30.38
2018-06-18T13:53:00.021Z,31.02
2018-06-18T13:55:26.970Z,30.84
2018-06-18T13:57:54.036Z,31.04
2018-06-18T14:00:21.319Z,30.63
2018-06-18T14:02:48.289Z,30.46
2018-06-18T14:05:15.313Z,29.86
2018-06-18T14:07:42.498Z,30.48
2018-06-18T14:10:09.507Z,30.64
2018-06-18T14:12:36.568Z,30.51
2018-06-18T14:15:03.597Z,30.46
2018-06-18T14:17:30.729Z,30.69
2018-06-18T14:19:57.914Z,30.75
2018-06-18T14:22:25.320Z,30.50
2018-06-18T14:24:52.336Z,30.46
2018-06-18T14:27:19.540Z,30.47
2018-06-18T14:29:46.590Z,30.59
2018-06-18T14:32:13.583Z,30.33
2018-06-18T14:34:46.226Z,30.42
2018-06-18T14:37:30.004Z,30.82
2018-06-18T14:39:57.015Z,31.18
2018-06-18T14:42:24.242Z,31.21
2018-06-18T14:44:51.108Z,31.10
2018-06-18T14:47:18.176Z,30.93
2018-06-18T14:49:45.212Z,31.34
2018-06-18T14:52:12.207Z,31.63
2018-06-18T14:54:39.215Z,31.38
2018-06-18T14:57:06.357Z,31.46
2018-06-18T14:59:33.405Z,31.18
2018-06-18T15:02:00.467Z,30.93
2018-06-18T15:04:27.599Z,30.75
2018-06-18T15:06:54.615Z,30.76
2018-06-18T15:09:22.452Z,31.17
2018-06-18T15:11:49.391Z,31.03
2018-06-18T15:14:16.355Z,31.09
2018-06-18T15:16:43.516Z,31.00
2018-06-18T15:19:10.590Z,30.86
2018-06-18T15:21:37.591Z,30.85
2018-06-18T15:24:04.619Z,31.08
2018-06-18T15:26:31.640Z,31.10
2018-06-18T15:28:58.760Z,31.16
2018-06-18T15:31:25.740Z,31.19
2018-06-18T15:33:52.778Z,31.27
2018-06-18T15:36:19.795Z,31.61
2018-06-18T15:38:46.787Z,31.62
2018-06-18T15:41:13.899Z,31.59
2018-06-18T15:43:40.929Z,31.55
2018-06-18T15:46:07.896Z,31.42
2018-06-18T15:48:34.994Z,31.40
2018-06-18T15:51:02.044Z,31.62
2018-06-18T15:53:29.047Z,31.49
2018-06-18T15:55:56.344Z,31.52
2018-06-18T15:58:23.444Z,32.16
2018-06-18T16:00:50.886Z,31.71
2018-06-18T16:03:17.900Z,31.98
2018-06-18T16:05:45.423Z,32.17
2018-06-18T16:08:12.850Z,32.18
2018-06-18T16:10:40.307Z,32.17
2018-06-18T16:13:07.766Z,32.21
2018-06-18T16:15:35.198Z,32.41
2018-06-18T16:18:02.653Z,32.38
2018-06-18T16:20:30.145Z,32.36
2018-06-18T16:22:57.635Z,32.56
2018-06-18T16:25:25.113Z,32.45
2018-06-18T16:27:52.754Z,32.56
2018-06-18T16:30:20.368Z,32.50
2018-06-18T16:32:47.980Z,32.30
2018-06-18T16:35:15.430Z,32.35
2018-06-18T16:37:43.024Z,32.17
2018-06-18T16:40:10.492Z,32.18
2018-06-18T16:42:38.062Z,32.82
2018-06-18T16:45:05.631Z,32.98
2018-06-18T16:47:33.061Z,32.86
2018-06-18T16:50:00.508Z,32.50
2018-06-18T16:52:28.187Z,32.25
2018-06-18T16:54:55.640Z,32.62
2018-06-18T16:57:23.511Z,32.55
2018-06-18T16:59:50.994Z,33.18
2018-06-18T17:02:18.489Z,32.13
2018-06-18T17:04:45.988Z,32.24
2018-06-18T17:07:13.669Z,32.00
2018-06-18T17:09:41.196Z,32.36
2018-06-18T17:12:08.661Z,32.10
2018-06-18T17:14:36.176Z,32.45
2018-06-18T17:17:03.739Z,32.46
2018-06-18T17:19:31.219Z,32.14
2018-06-18T17:21:58.873Z,32.40
2018-06-18T17:24:26.337Z,32.20
2018-06-18T17:26:53.948Z,32.14
2018-06-18T17:29:21.385Z,32.17
2018-06-18T17:31:48.993Z,32.00
2018-06-18T17:34:16.522Z,32.27
2018-06-18T17:36:43.945Z,32.91
2018-06-18T17:39:11.371Z,33.27
2018-06-18T17:41:38.853Z,33.38
2018-06-18T17:44:06.333Z,33.46
2018-06-18T17:46:33.837Z,33.44
2018-06-18T17:49:01.272Z,33.79
2018-06-18T17:51:28.747Z,33.91
2018-06-18T17:53:56.262Z,34.36
2018-06-18T17:56:23.831Z,34.44
2018-06-18T17:58:51.306Z,34.30
2018-06-18T18:01:18.759Z,34.47
2018-06-18T18:03:46.361Z,34.62
2018-06-18T18:06:13.852Z,35.36
2018-06-18T18:08:41.313Z,35.80
2018-06-18T18:11:08.810Z,36.32
2018-06-18T18:13:36.410Z,36.56
2018-06-18T18:16:04.386Z,36.71
2018-06-18T18:18:31.875Z,36.76
2018-06-18T18:20:59.307Z,37.00
2018-06-18T18:23:27.590Z,36.59
2018-06-18T18:25:55.042Z,36.78
2018-06-18T18:28:22.579Z,36.76
2018-06-18T18:30:50.060Z,37.01
2018-06-18T18:33:17.533Z,37.48
2018-06-18T18:35:44.952Z,37.98
2018-06-18T18:38:12.432Z,38.50
2018-06-18T18:40:39.924Z,38.75
2018-06-18T18:43:07.442Z,39.39
2018-06-18T18:45:34.982Z,39.63
2018-06-18T18:48:02.310Z,39.91
2018-06-18T18:50:29.800Z,40.26
2018-06-18T18:52:57.369Z,40.50
2018-06-18T18:58:28.670Z,41.41
2018-06-18T19:00:56.119Z,41.43
2018-06-18T19:03:23.649Z,42.04
2018-06-18T19:05:51.154Z,42.26
2018-06-18T19:08:18.799Z,42.44
2018-06-18T19:10:46.222Z,42.68
2018-06-18T19:13:13.702Z,42.84
2018-06-18T19:15:41.162Z,43.06
2018-06-18T19:18:08.750Z,43.32
2018-06-18T19:20:36.152Z,43.49
2018-06-18T19:23:04.848Z,43.72
2018-06-18T19:25:32.292Z,43.85
2018-06-18T19:27:59.790Z,44.05
2018-06-18T19:30:27.280Z,44.00
2018-06-18T19:32:54.755Z,44.13
2018-06-18T19:35:22.264Z,44.34
2018-06-18T19:37:49.735Z,44.59
2018-06-18T19:40:17.187Z,44.86
2018-06-18T19:42:44.665Z,45.04
2018-06-18T19:45:12.356Z,45.09
2018-06-18T19:47:39.918Z,45.34
2018-06-18T19:50:07.489Z,45.50
2018-06-18T19:52:34.933Z,45.71
2018-06-18T19:55:02.420Z,45.88
2018-06-18T19:57:29.926Z,45.96
2018-06-18T19:59:57.348Z,46.00
2018-06-18T20:02:24.806Z,46.14
2018-06-18T20:04:52.226Z,46.25
2018-06-18T20:07:19.719Z,46.45
2018-06-18T20:09:47.167Z,46.42
2018-06-18T20:12:14.627Z,46.61
2018-06-18T20:14:42.339Z,46.58
2018-06-18T20:17:09.794Z,46.56
2018-06-18T20:19:37.267Z,46.52
2018-06-18T20:22:04.761Z,46.55
2018-06-18T20:24:32.301Z,46.58
2018-06-18T20:26:59.843Z,46.52
2018-06-18T20:29:27.330Z,46.91
2018-06-18T20:31:54.961Z,47.26
2018-06-18T20:34:23.014Z,47.24
2018-06-18T20:36:50.518Z,47.82
2018-06-18T20:39:18.006Z,47.44
2018-06-18T20:41:45.477Z,47.49
2018-06-18T20:44:12.916Z,47.89
2018-06-18T20:46:40.435Z,48.01
2018-06-18T20:49:07.859Z,48.67
2018-06-18T20:51:35.344Z,48.90
2018-06-18T20:54:02.945Z,49.38
2018-06-18T20:56:30.377Z,49.55
2018-06-18T20:58:57.858Z,49.56
2018-06-18T21:01:25.263Z,49.33
2018-06-18T21:03:52.708Z,49.22
2018-06-18T21:06:21.341Z,49.72
2018-06-18T21:08:48.980Z,49.55
2018-06-18T21:11:16.428Z,49.63
2018-06-18T21:13:43.885Z,49.83
2018-06-18T21:16:11.320Z,50.25
2018-06-18T21:18:38.834Z,50.45
2018-06-18T21:21:06.274Z,50.60
2018-06-18T21:23:33.753Z,50.81
2018-06-18T21:26:01.168Z,50.93
2018-06-18T21:28:29.016Z,50.58
2018-06-18T21:30:56.516Z,50.14
2018-06-18T21:33:23.921Z,49.90
2018-06-18T21:35:51.389Z,50.06
2018-06-18T21:38:18.929Z,50.17
2018-06-18T21:40:46.468Z,50.41
2018-06-18T21:43:14.053Z,50.72
2018-06-18T21:45:41.575Z,50.75
2018-06-18T21:48:10.322Z,50.70
2018-06-18T21:50:37.944Z,51.10
2018-06-18T21:53:05.478Z,51.23
2018-06-18T21:55:33.989Z,51.27
2018-06-18T21:58:01.430Z,51.51
2018-06-18T22:00:28.883Z,51.84
2018-06-18T22:02:56.442Z,52.07
2018-06-18T22:05:43.961Z,52.22
2018-06-18T22:08:11.457Z,52.44
2018-06-18T22:10:39.012Z,52.47
2018-06-18T22:13:06.546Z,52.85
2018-06-18T22:15:34.007Z,52.71
2018-06-18T22:18:01.469Z,52.77
2018-06-18T22:20:28.906Z,52.81
2018-06-18T22:22:56.376Z,52.77
2018-06-18T22:25:23.854Z,52.91
2018-06-18T22:27:51.353Z,53.02
2018-06-18T22:30:18.866Z,53.24
2018-06-18T22:32:46.360Z,53.16
2018-06-18T22:35:13.928Z,53.50
2018-06-18T22:37:41.443Z,53.78
2018-06-18T22:40:09.099Z,54.05
2018-06-18T22:42:36.532Z,54.13
2018-06-18T22:45:04.127Z,54.13
2018-06-18T22:47:31.591Z,54.11
2018-06-18T22:49:59.061Z,54.13
2018-06-18T22:52:26.519Z,54.13
2018-06-18T22:54:54.216Z,54.54
2018-06-18T22:57:21.606Z,55.34
2018-06-18T22:59:49.141Z,55.59
2018-06-18T23:02:16.650Z,55.66
2018-06-18T23:04:44.113Z,55.75
2018-06-18T23:07:11.551Z,55.53
2018-06-18T23:09:38.963Z,55.29
2018-06-18T23:12:06.539Z,55.25
2018-06-18T23:14:34.184Z,55.53
2018-06-18T23:17:01.646Z,55.50
2018-06-18T23:19:29.148Z,55.62
2018-06-18T23:21:56.545Z,55.53
2018-06-18T23:24:23.992Z,55.73
2018-06-18T23:26:51.530Z,55.79
2018-06-18T23:29:18.981Z,55.93
2018-06-18T23:31:46.470Z,55.83
2018-06-18T23:34:13.920Z,55.88
2018-06-18T23:36:41.310Z,56.26
2018-06-18T23:39:08.812Z,56.59
2018-06-18T23:41:36.223Z,56.81
2018-06-18T23:44:03.964Z,56.86
2018-06-18T23:46:31.473Z,57.01
2018-06-18T23:48:58.932Z,57.05
2018-06-18T23:51:26.402Z,57.18
2018-06-18T23:53:53.852Z,57.37
2018-06-18T23:56:21.281Z,57.21
2018-06-18T23:58:48.772Z,57.08
